Decoded Metar for LFKB (BASTIA in CORSE ISL.) (IATA:BIA) | Meteo·Mobile Aviation Weather
aviador You're here:

LFKB Decoded Metar

BASTIA in CORSE ISL.
Report Time2018-10-18 16:00:00
UTC Time2018-10-18 16:31:15
Flight Rules vfr VFR
Wind110° at 03 kt
W.Decomp.*RWY 16: 1.8 kt HW 2.4 kt LCW
W.Rank110° ranks 9
Current wind is below 110° avg. (6.4)
Visibility9999 m
Phenomena:N/A
Clouds:Few 022 Hf
Expected CloudBase > 1,600 ft AGL from Temp-Dew spread
CeilingNone
Temp22°C (ISA +7)
Dew Point18°C (78% RH)
QNH1012 hPa
Density Alt1,171 ft
Elevation39 ft
Report Wrong Elevation
Raw Report
LFKB 181600Z AUTO 11003KT 9999 FEW022 22/18 Q1012 NOSIG=

Extra information for LFKB:More info

Metar Taf Metar & Taf Last 4 Metars F.Rules Stats Wind Profile Meteogram Temp Stats Airport Information Weather charts Add Link Nearby VenuesMetar ALERT Operation Metar Decoded Social comments